createdAt,value
2023-02-01T00:00:43.798Z,100.00
2023-02-01T00:03:29.379Z,100.00
2023-02-01T00:06:01.617Z,100.00
2023-02-01T00:08:29.227Z,100.00
2023-02-01T00:11:09.039Z,100.00
2023-02-01T00:13:39.901Z,100.00
2023-02-01T00:16:08.780Z,100.00
2023-02-01T00:18:36.918Z,100.00
2023-02-01T00:21:05.083Z,100.00
2023-02-01T00:23:37.557Z,100.00
2023-02-01T00:26:06.811Z,100.00
2023-02-01T00:28:34.450Z,100.00
2023-02-01T00:31:04.348Z,100.00
2023-02-01T00:33:32.722Z,100.00
2023-02-01T00:36:05.990Z,100.00
2023-02-01T00:38:37.298Z,100.00
2023-02-01T00:41:14.479Z,100.00
2023-02-01T00:43:42.839Z,100.00
2023-02-01T00:46:11.720Z,100.00
2023-02-01T00:48:39.651Z,100.00
2023-02-01T00:51:10.532Z,100.00
2023-02-01T00:53:38.445Z,100.00
2023-02-01T00:56:07.180Z,100.00
2023-02-01T00:58:35.404Z,100.00
2023-02-01T01:01:14.808Z,100.00
2023-02-01T01:03:46.545Z,100.00
2023-02-01T01:06:16.831Z,100.00
2023-02-01T01:08:44.970Z,100.00
2023-02-01T01:11:19.144Z,100.00
2023-02-01T01:13:49.690Z,100.00
2023-02-01T01:16:19.083Z,100.00
2023-02-01T01:18:48.055Z,100.00
2023-02-01T01:21:17.260Z,100.00
2023-02-01T01:23:46.362Z,100.00
2023-02-01T01:26:21.208Z,100.00
2023-02-01T01:28:49.297Z,99.66
2023-02-01T01:31:19.909Z,100.00
2023-02-01T01:33:51.962Z,99.26
2023-02-01T01:36:20.402Z,98.95
2023-02-01T01:38:48.604Z,98.77
2023-02-01T01:41:23.934Z,98.82
2023-02-01T01:43:56.724Z,98.32
2023-02-01T01:46:31.884Z,98.80
2023-02-01T01:49:13.955Z,98.65
2023-02-01T01:51:52.230Z,97.68
2023-02-01T01:54:36.398Z,97.27
2023-02-01T01:57:09.262Z,97.20
2023-02-01T01:59:39.493Z,96.54
2023-02-01T02:02:07.612Z,96.93
2023-02-01T02:04:36.698Z,96.45
2023-02-01T02:07:26.040Z,95.84
2023-02-01T02:10:00.429Z,95.64
2023-02-01T02:12:29.532Z,94.86
2023-02-01T02:14:57.558Z,94.48
2023-02-01T02:17:37.598Z,94.00
2023-02-01T02:20:34.509Z,93.96
2023-02-01T02:23:28.684Z,93.49
2023-02-01T02:26:14.431Z,93.86
2023-02-01T02:29:11.725Z,93.14
2023-02-01T02:32:16.746Z,92.65
2023-02-01T02:35:29.259Z,93.14
2023-02-01T02:38:14.819Z,92.85
2023-02-01T02:40:50.113Z,93.42
2023-02-01T02:43:59.951Z,93.32
2023-02-01T02:46:55.854Z,92.84
2023-02-01T02:49:43.042Z,92.77
2023-02-01T02:52:36.510Z,92.45
2023-02-01T02:55:09.589Z,91.67
2023-02-01T02:57:59.875Z,91.39
2023-02-01T03:00:53.010Z,90.94
2023-02-01T03:03:39.598Z,90.05
2023-02-01T03:06:16.893Z,90.27
2023-02-01T03:08:46.356Z,90.37
2023-02-01T03:11:16.360Z,90.65
2023-02-01T03:14:01.747Z,89.98
2023-02-01T03:17:04.731Z,90.22
2023-02-01T03:19:44.734Z,90.08
2023-02-01T03:22:16.709Z,89.97
2023-02-01T03:24:49.995Z,90.04
2023-02-01T03:27:43.281Z,90.09
2023-02-01T03:30:22.028Z,90.08
2023-02-01T03:33:00.799Z,89.81
2023-02-01T03:35:49.505Z,89.83
2023-02-01T03:38:35.520Z,89.80
2023-02-01T03:41:23.275Z,90.51
2023-02-01T03:44:05.578Z,90.07
2023-02-01T03:46:57.296Z,91.02
2023-02-01T03:49:48.407Z,91.64
2023-02-01T03:52:23.961Z,92.80
2023-02-01T03:54:53.468Z,94.18
2023-02-01T03:57:28.075Z,94.71
2023-02-01T04:00:04.101Z,95.05
2023-02-01T04:02:42.010Z,95.68
2023-02-01T04:05:10.342Z,95.62
2023-02-01T04:07:44.242Z,95.72
2023-02-01T04:10:12.786Z,95.65
2023-02-01T04:12:41.172Z,95.74
2023-02-01T04:15:09.762Z,96.31
2023-02-01T04:17:40.551Z,96.10
2023-02-01T04:20:10.030Z,96.65
2023-02-01T04:22:38.092Z,97.41
2023-02-01T04:25:06.888Z,97.59
2023-02-01T04:27:35.102Z,98.02
2023-02-01T04:30:03.757Z,98.49
2023-02-01T04:32:31.703Z,98.18
2023-02-01T04:34:59.483Z,98.63
2023-02-01T04:37:27.447Z,97.93
2023-02-01T04:39:55.090Z,97.47
2023-02-01T04:42:23.226Z,97.43
2023-02-01T04:44:50.909Z,96.84
2023-02-01T04:47:18.871Z,96.13
2023-02-01T04:49:46.476Z,96.26
2023-02-01T04:52:14.509Z,96.29
2023-02-01T04:54:42.211Z,96.27
2023-02-01T04:57:10.463Z,95.81
2023-02-01T04:59:38.130Z,95.15
2023-02-01T05:02:06.042Z,94.54
2023-02-01T05:04:33.782Z,94.47
2023-02-01T05:07:01.689Z,93.79
2023-02-01T05:09:29.306Z,93.36
2023-02-01T05:12:16.182Z,92.90
2023-02-01T05:14:43.922Z,91.65
2023-02-01T05:17:11.938Z,91.82
2023-02-01T05:19:39.538Z,91.16
2023-02-01T05:22:07.465Z,90.85
2023-02-01T05:24:35.066Z,90.63
2023-02-01T05:27:03.171Z,90.74
2023-02-01T05:29:30.946Z,90.19
2023-02-01T05:32:05.256Z,90.10
2023-02-01T05:34:39.647Z,90.20
2023-02-01T05:37:07.610Z,90.56
2023-02-01T05:39:35.327Z,90.63
2023-02-01T05:42:03.296Z,89.57
2023-02-01T05:44:30.908Z,89.99
2023-02-01T05:46:58.867Z,89.41
2023-02-01T05:49:26.483Z,89.22
2023-02-01T05:51:54.453Z,89.05
2023-02-01T05:54:22.121Z,89.03
2023-02-01T05:56:50.258Z,88.23
2023-02-01T05:59:17.994Z,88.61
2023-02-01T06:01:46.003Z,89.10
2023-02-01T06:04:13.653Z,89.21
2023-02-01T06:06:41.799Z,88.69
2023-02-01T06:09:09.495Z,88.94
2023-02-01T06:11:37.450Z,88.29
2023-02-01T06:14:05.142Z,87.96
2023-02-01T06:16:33.785Z,87.66
2023-02-01T06:19:01.428Z,87.83
2023-02-01T06:21:29.464Z,87.65
2023-02-01T06:23:58.790Z,87.78
2023-02-01T06:26:27.152Z,87.81
2023-02-01T06:28:54.933Z,86.96
2023-02-01T06:31:24.180Z,87.59
2023-02-01T06:33:53.076Z,87.15
2023-02-01T06:36:22.358Z,87.62
2023-02-01T06:38:50.107Z,87.11
2023-02-01T06:41:18.618Z,87.51
2023-02-01T06:43:47.246Z,87.28
2023-02-01T06:46:15.956Z,87.07
2023-02-01T06:48:44.147Z,86.44
2023-02-01T06:51:23.772Z,86.18
2023-02-01T06:53:51.771Z,86.10
2023-02-01T06:56:20.311Z,86.15
2023-02-01T06:58:49.140Z,85.92
2023-02-01T07:01:17.722Z,86.00
2023-02-01T07:03:50.034Z,85.44
2023-02-01T07:06:18.429Z,85.09
2023-02-01T07:08:46.383Z,85.17
2023-02-01T07:11:16.620Z,85.38
2023-02-01T07:13:44.717Z,85.20
2023-02-01T07:16:15.541Z,85.19
2023-02-01T07:18:43.570Z,84.78
2023-02-01T07:21:11.590Z,85.00
2023-02-01T07:23:39.515Z,85.25
2023-02-01T07:26:08.674Z,85.67
2023-02-01T07:28:38.630Z,85.76
2023-02-01T07:31:27.487Z,86.27
2023-02-01T07:33:57.320Z,86.31
2023-02-01T07:36:25.408Z,86.55
2023-02-01T07:38:56.398Z,86.00
2023-02-01T07:41:24.617Z,85.62
2023-02-01T07:43:55.138Z,85.51
2023-02-01T07:46:23.703Z,85.28
2023-02-01T07:48:51.362Z,85.75
2023-02-01T07:51:19.436Z,85.54
2023-02-01T07:53:47.245Z,85.07
2023-02-01T07:56:20.846Z,85.57
2023-02-01T07:58:53.906Z,85.29
2023-02-01T08:01:26.830Z,85.28
2023-02-01T08:03:57.822Z,85.39
2023-02-01T08:06:26.899Z,85.58
2023-02-01T08:08:55.521Z,85.88
2023-02-01T08:11:25.229Z,85.96
2023-02-01T08:13:53.496Z,86.13
2023-02-01T08:16:22.471Z,86.45
2023-02-01T08:18:50.821Z,86.98
2023-02-01T08:21:24.736Z,87.84
2023-02-01T08:23:52.803Z,88.22
2023-02-01T08:26:26.983Z,87.96
2023-02-01T08:28:59.098Z,88.09
2023-02-01T08:31:29.355Z,87.88
2023-02-01T08:34:04.624Z,87.51
2023-02-01T08:36:33.090Z,87.94
2023-02-01T08:39:01.053Z,87.80
2023-02-01T08:41:31.160Z,87.31
2023-02-01T08:43:59.448Z,87.64
2023-02-01T08:46:28.023Z,87.30
2023-02-01T08:48:55.767Z,87.49
2023-02-01T08:51:24.740Z,87.17
2023-02-01T08:53:52.836Z,86.84
2023-02-01T08:56:21.456Z,86.74
2023-02-01T08:58:49.224Z,86.67
2023-02-01T09:01:18.559Z,87.37
2023-02-01T09:03:46.951Z,87.89
2023-02-01T09:06:16.938Z,88.06
2023-02-01T09:08:45.475Z,88.62
2023-02-01T09:11:16.363Z,89.38
2023-02-01T09:13:44.534Z,90.09
2023-02-01T09:16:13.573Z,89.69
2023-02-01T09:18:50.584Z,89.91
2023-02-01T09:21:29.784Z,89.77
2023-02-01T09:23:57.613Z,88.65
2023-02-01T09:26:32.168Z,88.78
2023-02-01T09:29:01.479Z,88.20
2023-02-01T09:31:29.738Z,88.33
2023-02-01T09:33:57.801Z,87.61
2023-02-01T09:36:25.759Z,86.50
2023-02-01T09:38:54.141Z,85.82
2023-02-01T09:41:43.826Z,85.33
2023-02-01T09:44:51.412Z,83.91
2023-02-01T09:47:23.261Z,82.25
2023-02-01T09:50:21.796Z,80.62
2023-02-01T09:53:19.839Z,79.88
2023-02-01T09:55:52.452Z,78.62
2023-02-01T09:58:37.549Z,77.56
2023-02-01T10:01:15.219Z,76.74
2023-02-01T10:03:43.376Z,76.20
2023-02-01T10:06:49.217Z,75.32
2023-02-01T10:09:41.687Z,74.99
2023-02-01T10:12:29.535Z,74.63
2023-02-01T10:15:03.888Z,74.27
2023-02-01T10:17:58.111Z,74.41
2023-02-01T10:20:32.489Z,74.37
2023-02-01T10:23:32.826Z,74.46
2023-02-01T10:26:22.038Z,74.55
2023-02-01T10:28:59.725Z,74.41
2023-02-01T10:31:32.592Z,74.41
2023-02-01T10:34:02.727Z,74.31
2023-02-01T10:36:40.727Z,74.30
2023-02-01T10:39:13.290Z,74.35
2023-02-01T10:41:43.966Z,74.11
2023-02-01T10:44:18.074Z,74.07
2023-02-01T10:46:46.593Z,74.04
2023-02-01T10:49:34.896Z,74.14
2023-02-01T10:52:21.151Z,74.93
2023-02-01T10:54:48.914Z,74.71
2023-02-01T10:57:34.855Z,74.80
2023-02-01T11:00:20.293Z,74.93
2023-02-01T11:02:51.264Z,74.60
2023-02-01T11:05:19.874Z,74.50
2023-02-01T11:07:56.397Z,74.67
2023-02-01T11:10:44.383Z,74.35
2023-02-01T11:13:18.603Z,74.00
2023-02-01T11:15:48.377Z,73.93
2023-02-01T11:18:25.876Z,73.13
2023-02-01T11:20:54.191Z,72.33
2023-02-01T11:23:26.583Z,72.12
2023-02-01T11:26:00.083Z,72.32
2023-02-01T11:28:36.333Z,72.42
2023-02-01T11:31:13.154Z,72.64
2023-02-01T11:33:51.923Z,72.80
2023-02-01T11:36:31.090Z,72.73
2023-02-01T11:39:14.405Z,72.81
2023-02-01T11:42:17.440Z,72.80
2023-02-01T11:44:47.452Z,73.02
2023-02-01T11:47:39.459Z,73.26
2023-02-01T11:50:22.313Z,73.46
2023-02-01T11:52:56.012Z,73.47
2023-02-01T11:55:48.570Z,73.66
2023-02-01T11:58:53.980Z,73.88
2023-02-01T12:01:50.052Z,74.28
2023-02-01T12:04:46.737Z,74.71
2023-02-01T12:07:34.557Z,74.88
2023-02-01T12:10:23.753Z,74.63
2023-02-01T12:13:29.470Z,74.71
2023-02-01T12:16:21.601Z,74.95
2023-02-01T12:19:07.020Z,74.90
2023-02-01T12:21:54.125Z,74.87
2023-02-01T12:24:48.882Z,75.28
2023-02-01T12:27:37.739Z,75.97
2023-02-01T12:30:47.520Z,75.95
2023-02-01T12:33:32.977Z,76.66
2023-02-01T12:36:19.904Z,76.64
2023-02-01T12:38:56.310Z,76.47
2023-02-01T12:41:30.475Z,76.84
2023-02-01T12:44:10.026Z,77.19
2023-02-01T12:46:42.906Z,76.86
2023-02-01T12:49:19.516Z,77.07
2023-02-01T12:51:50.731Z,76.14
2023-02-01T12:54:28.737Z,76.31
2023-02-01T12:57:06.484Z,76.14
2023-02-01T12:59:45.743Z,76.71
2023-02-01T13:03:05.017Z,76.98
2023-02-01T13:06:08.215Z,77.17
2023-02-01T13:09:06.889Z,77.29
2023-02-01T13:11:43.521Z,77.16
2023-02-01T13:14:41.505Z,76.78
2023-02-01T13:17:17.297Z,76.48
2023-02-01T13:20:08.681Z,76.24
2023-02-01T13:22:51.182Z,75.71
2023-02-01T13:25:50.588Z,75.56
2023-02-01T13:28:30.841Z,75.22
2023-02-01T13:31:50.185Z,75.40
2023-02-01T13:34:39.892Z,75.35
2023-02-01T13:37:35.661Z,75.16
2023-02-01T13:40:21.496Z,75.31
2023-02-01T13:42:54.425Z,75.72
2023-02-01T13:45:26.406Z,75.50
2023-02-01T13:47:57.368Z,75.86
2023-02-01T13:50:41.782Z,75.82
2023-02-01T13:53:12.544Z,76.23
2023-02-01T13:55:41.338Z,76.24
2023-02-01T13:58:20.022Z,76.68
2023-02-01T14:00:49.611Z,77.00
2023-02-01T14:03:23.771Z,76.82
2023-02-01T14:05:51.717Z,77.07
2023-02-01T14:08:39.866Z,76.78
2023-02-01T14:11:27.623Z,76.89
2023-02-01T14:13:55.692Z,77.57
2023-02-01T14:16:24.064Z,77.69
2023-02-01T14:19:00.115Z,77.76
2023-02-01T14:21:34.384Z,78.23
2023-02-01T14:24:22.519Z,78.50
2023-02-01T14:26:55.871Z,78.97
2023-02-01T14:29:31.758Z,79.00
2023-02-01T14:32:06.785Z,79.59
2023-02-01T14:34:49.892Z,79.49
2023-02-01T14:37:23.930Z,79.57
2023-02-01T14:40:06.536Z,79.98
2023-02-01T14:42:44.537Z,80.21
2023-02-01T14:45:23.398Z,80.52
2023-02-01T14:48:06.952Z,80.97
2023-02-01T14:50:37.635Z,81.35
2023-02-01T14:53:14.656Z,81.66
2023-02-01T14:55:45.502Z,81.97
2023-02-01T14:58:21.488Z,81.59
2023-02-01T15:00:58.112Z,81.93
2023-02-01T15:03:49.537Z,81.95
2023-02-01T15:06:40.256Z,81.79
2023-02-01T15:09:25.218Z,81.70
2023-02-01T15:12:01.980Z,81.81
2023-02-01T15:14:32.508Z,81.61
2023-02-01T15:17:00.895Z,81.57
2023-02-01T15:19:31.730Z,81.19
2023-02-01T15:22:01.173Z,81.07
2023-02-01T15:24:31.164Z,81.46
2023-02-01T15:27:05.882Z,81.44
2023-02-01T15:29:34.528Z,81.75
2023-02-01T15:32:02.928Z,81.36
2023-02-01T15:34:50.668Z,80.90
2023-02-01T15:37:23.318Z,81.41
2023-02-01T15:40:13.125Z,81.14
2023-02-01T15:43:00.654Z,81.09
2023-02-01T15:45:33.087Z,80.84
2023-02-01T15:48:01.747Z,80.42
2023-02-01T15:50:32.282Z,80.05
2023-02-01T15:53:00.492Z,79.87
2023-02-01T15:55:41.500Z,79.85
2023-02-01T15:58:22.301Z,79.99
2023-02-01T16:00:57.236Z,79.72
2023-02-01T16:03:43.947Z,79.67
2023-02-01T16:06:32.167Z,79.55
2023-02-01T16:09:00.044Z,80.13
2023-02-01T16:11:40.868Z,80.50
2023-02-01T16:14:08.819Z,81.13
2023-02-01T16:16:36.481Z,81.30
2023-02-01T16:19:04.537Z,81.63
2023-02-01T16:21:32.222Z,81.90
2023-02-01T16:24:04.722Z,82.23
2023-02-01T16:26:34.359Z,82.31
2023-02-01T16:29:07.310Z,82.14
2023-02-01T16:31:38.759Z,82.26
2023-02-01T16:34:07.588Z,82.02
2023-02-01T16:36:35.724Z,82.67
2023-02-01T16:39:04.665Z,82.73
2023-02-01T16:41:32.393Z,82.74
2023-02-01T16:44:00.353Z,83.03
2023-02-01T16:46:36.485Z,83.57
2023-02-01T16:49:05.285Z,83.75
2023-02-01T16:51:34.526Z,83.86
2023-02-01T16:54:03.062Z,83.60
2023-02-01T16:56:34.093Z,84.21
2023-02-01T16:59:02.629Z,84.18
2023-02-01T17:01:30.488Z,83.79
2023-02-01T17:03:58.607Z,83.74
2023-02-01T17:06:28.478Z,83.84
2023-02-01T17:09:03.307Z,84.31
2023-02-01T17:11:31.330Z,84.55
2023-02-01T17:14:17.520Z,84.30
2023-02-01T17:16:48.048Z,84.77
2023-02-01T17:19:18.985Z,84.81
2023-02-01T17:21:53.365Z,85.06
2023-02-01T17:24:24.943Z,85.40
2023-02-01T17:26:53.674Z,85.99
2023-02-01T17:29:21.839Z,85.66
2023-02-01T17:31:53.292Z,85.83
2023-02-01T17:34:22.353Z,85.65
2023-02-01T17:36:50.570Z,85.73
2023-02-01T17:39:37.741Z,85.41
2023-02-01T17:42:06.957Z,85.56
2023-02-01T17:44:35.053Z,85.60
2023-02-01T17:47:02.759Z,85.40
2023-02-01T17:49:30.753Z,85.42
2023-02-01T17:51:58.712Z,84.90
2023-02-01T17:54:26.815Z,84.76
2023-02-01T17:56:55.199Z,84.96
2023-02-01T17:59:23.130Z,84.99
2023-02-01T18:01:51.875Z,84.60
2023-02-01T18:04:21.756Z,85.29
2023-02-01T18:06:49.489Z,84.79
2023-02-01T18:09:17.527Z,85.16
2023-02-01T18:11:45.362Z,84.86
2023-02-01T18:14:13.714Z,85.85
2023-02-01T18:16:41.925Z,86.55
2023-02-01T18:19:10.044Z,87.15
2023-02-01T18:21:45.771Z,87.34
2023-02-01T18:24:15.012Z,87.79
2023-02-01T18:26:43.696Z,88.57
2023-02-01T18:29:11.742Z,89.22
2023-02-01T18:31:46.159Z,89.52
2023-02-01T18:34:21.292Z,89.78
2023-02-01T18:36:49.900Z,89.49
2023-02-01T18:39:18.438Z,89.84
2023-02-01T18:41:48.622Z,90.42
2023-02-01T18:44:17.584Z,90.50
2023-02-01T18:46:45.468Z,90.57
2023-02-01T18:49:18.017Z,90.06
2023-02-01T18:51:46.779Z,89.86
2023-02-01T18:54:15.181Z,90.13
2023-02-01T18:56:43.481Z,90.32
2023-02-01T18:59:11.972Z,90.07
2023-02-01T19:01:39.919Z,90.50
2023-02-01T19:04:12.351Z,90.85
2023-02-01T19:06:45.568Z,91.62
2023-02-01T19:12:52.035Z,92.26
2023-02-01T19:15:24.117Z,92.35
2023-02-01T19:17:58.907Z,92.68
2023-02-01T19:20:29.253Z,92.75
2023-02-01T19:23:11.107Z,92.81
2023-02-01T19:25:49.688Z,92.53
2023-02-01T19:28:36.867Z,92.04
2023-02-01T19:31:26.451Z,92.02
2023-02-01T19:34:16.038Z,91.33
2023-02-01T19:36:56.521Z,91.14
2023-02-01T19:39:30.312Z,91.40
2023-02-01T19:42:06.438Z,91.61
2023-02-01T19:44:44.839Z,91.79
2023-02-01T19:47:34.153Z,91.51
2023-02-01T19:50:37.469Z,92.29
2023-02-01T19:53:13.508Z,91.51
2023-02-01T19:55:51.059Z,92.06
2023-02-01T19:58:39.835Z,91.77
2023-02-01T20:01:34.654Z,91.58
2023-02-01T20:04:27.971Z,91.97
2023-02-01T20:07:44.519Z,92.11
2023-02-01T20:17:24.179Z,91.38
2023-02-01T20:19:55.445Z,91.44
2023-02-01T20:22:33.374Z,91.56
2023-02-01T20:25:20.306Z,91.67
2023-02-01T20:28:03.154Z,91.73
2023-02-01T20:30:56.035Z,92.14
2023-02-01T20:33:32.456Z,92.26
2023-02-01T20:36:21.568Z,92.88
2023-02-01T20:39:06.900Z,93.29
2023-02-01T20:42:13.950Z,93.20
2023-02-01T20:46:24.678Z,93.05
2023-02-01T20:49:20.186Z,92.79
2023-02-01T20:51:59.236Z,93.52
2023-02-01T20:54:27.651Z,93.34
2023-02-01T20:57:05.537Z,93.87
2023-02-01T20:59:43.104Z,93.76
2023-02-01T21:02:43.845Z,93.98
2023-02-01T21:05:57.753Z,94.57
2023-02-01T21:08:36.010Z,95.06
2023-02-01T21:11:08.364Z,95.05
2023-02-01T21:13:44.176Z,95.55
2023-02-01T21:16:27.395Z,95.02
2023-02-01T21:19:17.370Z,94.60
2023-02-01T21:23:06.430Z,94.33
2023-02-01T21:26:21.284Z,94.29
2023-02-01T21:29:16.130Z,94.06
2023-02-01T21:31:47.356Z,94.19
2023-02-01T21:34:16.230Z,94.94
2023-02-01T21:36:45.267Z,95.28
2023-02-01T21:42:29.724Z,95.93
2023-02-01T21:45:00.205Z,95.30
2023-02-01T21:47:38.216Z,95.24
2023-02-01T21:50:50.372Z,95.74
2023-02-01T21:53:19.373Z,95.69
2023-02-01T21:55:47.746Z,95.48
2023-02-01T21:58:22.316Z,95.10
2023-02-01T22:00:59.633Z,94.23
2023-02-01T22:03:31.573Z,93.94
2023-02-01T22:06:03.370Z,93.92
2023-02-01T22:08:37.642Z,93.33
2023-02-01T22:11:09.128Z,93.77
2023-02-01T22:14:15.243Z,93.72
2023-02-01T22:17:05.177Z,93.94
2023-02-01T22:19:49.920Z,93.23
2023-02-01T22:22:57.639Z,92.76
2023-02-01T22:25:30.301Z,92.54
2023-02-01T22:28:30.944Z,93.19
2023-02-01T22:30:51.243Z,92.69
2023-02-01T22:33:59.861Z,92.66
2023-02-01T22:37:24.499Z,92.47
2023-02-01T22:39:58.674Z,92.39
2023-02-01T22:42:27.555Z,91.51
2023-02-01T22:44:59.910Z,91.47
2023-02-01T22:50:31.488Z,90.72
2023-02-01T22:53:00.064Z,90.60
2023-02-01T22:56:31.024Z,90.12
2023-02-01T23:02:50.471Z,90.29
2023-02-01T23:05:36.940Z,90.95
2023-02-01T23:08:05.660Z,91.11
2023-02-01T23:10:44.397Z,91.14
2023-02-01T23:13:34.798Z,91.75
2023-02-01T23:16:15.426Z,92.30
2023-02-01T23:18:44.005Z,92.65
2023-02-01T23:21:16.205Z,92.05
2023-02-01T23:23:58.245Z,92.71
2023-02-01T23:26:55.293Z,92.91
2023-02-01T23:30:27.143Z,93.66
2023-02-01T23:33:02.900Z,93.52
2023-02-01T23:35:45.197Z,93.96
2023-02-01T23:41:42.895Z,94.98
2023-02-01T23:44:14.388Z,95.36
2023-02-01T23:47:09.105Z,95.98
2023-02-01T23:50:00.582Z,96.36
2023-02-01T23:52:37.914Z,97.06
2023-02-01T23:55:17.637Z,97.40
2023-02-01T23:57:46.320Z,97.93
